Information Last Ob Photographs Calibration Meteogram Network Table Neighbors Monthly Summaries Observation History Wind Roses Custom Wind Roses Data Calendar Satellite Cloud Product Download

Most Recent Observation

This application displays the last observation received by the IEM from this site. The time stamp is in America/Chicago timezone.

Observation Local Time29 Feb 2024, 1:55 AM
Observation UTC Time2024-02-29T07:55:00Z
Air Temp [F]22.5
Maximum Air Temperature [F]22.5
Minimum Air Temperature [F]17.4
Dew Point [F]13.3
Wind DirectionS (180 degrees)
Wind Speed [knots]5
Altimeter [inches]30.19
Raw Observation/ProductKCKP 290755Z AUTO 18005KT 10SM CLR M05/M10 A3019 RMK AO2 T10531104
Cloud Layer 1: CLR ( feet)

This data was provided by a JSON(P) webservice. You can find more JSON services.